• Join FlightAware (Why Join?)
  • Login
  • US Flag 
06:55PM EDT


 

Airport Tracker/Info


-or-


 

Live Flight TrackerFlight Track Log ✈ TTE560 ✈ 08-Nov-2013 ✈ KSLC - KPIH

Flight Track Log - Related Links

Times and Time Zones

All times are in EST time to prevent confusion due to time zone crossing. See the TTE560 flight status page for this flight to view local times or setup timezone preferences in your user account.

Time Position Orientation Groundspeed Altitude Reporting Facility
EST Latitude Longitude Course Direction KTS MPH feet Rate Location/Type
08:11PM 40.9236 -111.9858 359° North 258 297 9,400  Level Salt Lake Center
08:12PM 41.0106 -111.9378 23° Northeast 302 348 12,300 2,460 Climbing Salt Lake Center
08:13PM 41.0672 -111.8792 38° Northeast 309 356 14,600 2,580 Climbing Salt Lake Center
08:14PM 41.1639 -111.8297 21° North 305 351 17,700 2,580 Climbing Salt Lake Center
08:15PM 41.2469 -111.7886 20° North 318 366 19,900 1,080 Climbing Salt Lake Center
08:16PM 41.3392 -111.7350 24° Northeast 369 425 20,000  Climbing Salt Lake Center
08:17PM 41.4375 -111.6850 21° North 378 435 20,000  Level Salt Lake Center
08:18PM 41.5344 -111.6417 18° North 368 423 20,000  Level Salt Lake Center
08:19PM 41.6314 -111.6200 North 353 406 20,000  Level Salt Lake Center
08:20PM 41.7311 -111.6283 356° North 359 413 20,000  Level Salt Lake Center
08:21PM 41.8325 -111.6925 335° Northwest 343 395 20,000  Level Salt Lake Center
08:22PM 41.9147 -111.7578 329° Northwest 347 399 20,000  Level Salt Lake Center
08:23PM 41.9950 -111.8272 327° Northwest 345 397 20,000  Level Salt Lake Center
08:24PM 42.0769 -111.8936 329° Northwest 344 396 20,000 -360 Level Salt Lake Center
08:25PM 42.1575 -111.9631 327° Northwest 345 397 19,300 -1,080 Descending Salt Lake Center
08:26PM 42.2444 -112.0089 339° North 336 387 17,800 -1,560 Descending Salt Lake Center
08:27PM 42.3461 -112.0636 338° Northwest 327 376 16,100 -1,620 Descending Salt Lake Center
08:28PM 42.4286 -112.1064 339° North 321 369 14,500 -1,500 Descending Salt Lake Center
08:29PM 42.5097 -112.1453 341° North 313 360 13,000 -1,260 Descending Salt Lake Center
08:30PM 42.5867 -112.1828 340° North 302 348 12,000 -540 Descending Salt Lake Center
08:31PM 42.6647 -112.2244 339° North 293 337 12,000  Level Salt Lake Center
08:32PM 42.7333 -112.2561 341° North 284 327 12,000  Level Salt Lake Center
08:33PM 42.8136 -112.2997 338° Northwest 279 321 12,000 -240 Level Salt Lake Center
08:34PM 42.8794 -112.3411 335° Northwest 276 318 11,600 -1,320 Descending Salt Lake Center
08:35PM 42.9381 -112.3839 332° Northwest 243 280 9,400 -2,340 Descending Salt Lake Center
08:36PM 42.9694 -112.4236 317° Northwest 198 228 6,900 -1,620 Descending Salt Lake Center
08:37PM 42.9803 -112.4861 283° West 172 198 6,100 -720 Descending Salt Lake Center
08:38PM 42.9622 -112.5300 241° Southwest 167 192 5,500 -600 Descending Salt Lake Center